Time;durP1;ratioP1;P1;durP2;ratioP2;P2;SDS_P1;SDS_P2;PMS_P1;PMS_P2;Temp;Humidity;BMP_temperature;BMP_pressure;BME280_temperature;BME280_humidity;BME280_pressure;Samples;Min_cycle;Max_cycle;Signal;HPM_P1;HPM_P2
2022/11/24 00:01:09;;;;;;;1.30;0.17;;;;;;;;;;6127593;23;20025;-58
2022/11/24 00:03:36;;;;;;;1.20;0.30;;;;;;;;;;6135358;23;20452;-58
2022/11/24 00:06:03;;;;;;;1.02;0.20;;;;;;;;;;6129938;23;20492;-59
2022/11/24 00:08:29;;;;;;;1.10;0.20;;;;;;;;;;6133838;23;20013;-58
2022/11/24 00:10:56;;;;;;;1.00;0.20;;;;;;;;;;6131601;23;20536;-58
2022/11/24 00:13:22;;;;;;;0.80;0.10;;;;;;;;;;6135228;23;20028;-59
2022/11/24 00:15:50;;;;;;;0.77;0.10;;;;;;;;;;6130521;23;20065;-59
2022/11/24 00:18:16;;;;;;;3.05;1.20;;;;;;;;;;6134349;23;20082;-58
2022/11/24 00:20:43;;;;;;;0.70;0.10;;;;;;;;;;6131260;23;20309;-59
2022/11/24 00:23:09;;;;;;;1.33;0.68;;;;;;;;;;6137516;23;20073;-59
2022/11/24 00:25:36;;;;;;;0.80;0.10;;;;;;;;;;6135826;23;20017;-59
2022/11/24 00:28:03;;;;;;;0.80;0.10;;;;;;;;;;6138886;23;20127;-59
2022/11/24 00:30:29;;;;;;;0.82;0.13;;;;;;;;;;6129269;23;20285;-58
2022/11/24 00:32:57;;;;;;;1.08;0.20;;;;;;;;;;6137072;23;20022;-59
2022/11/24 00:35:24;;;;;;;1.38;0.28;;;;;;;;;;6136440;23;20448;-58
2022/11/24 00:37:52;;;;;;;1.00;0.20;;;;;;;;;;6140784;23;20466;-59
2022/11/24 00:40:19;;;;;;;1.53;0.30;;;;;;;;;;6111856;23;20017;-59
2022/11/24 00:42:45;;;;;;;1.10;0.20;;;;;;;;;;6139937;23;20387;-59
2022/11/24 00:45:11;;;;;;;1.23;0.30;;;;;;;;;;6109922;23;20399;-59
2022/11/24 00:47:39;;;;;;;1.40;0.38;;;;;;;;;;6116271;23;20065;-59
2022/11/24 00:50:08;;;;;;;1.63;0.30;;;;;;;;;;6133096;23;20017;-59
2022/11/24 00:52:34;;;;;;;1.03;0.20;;;;;;;;;;6143698;23;20056;-58
2022/11/24 00:55:01;;;;;;;1.67;0.30;;;;;;;;;;6132963;23;20028;-59
2022/11/24 00:57:27;;;;;;;1.10;0.20;;;;;;;;;;6141489;23;20024;-58
2022/11/24 00:59:54;;;;;;;1.15;0.20;;;;;;;;;;6107493;23;20396;-59
2022/11/24 01:02:20;;;;;;;1.05;0.30;;;;;;;;;;6139600;23;20068;-59
2022/11/24 01:04:47;;;;;;;1.07;0.20;;;;;;;;;;6136889;23;20080;-59
2022/11/24 01:07:14;;;;;;;7.43;0.60;;;;;;;;;;6141926;23;20021;-58
2022/11/24 01:09:42;;;;;;;1.13;0.17;;;;;;;;;;6139396;23;20022;-59
2022/11/24 01:12:08;;;;;;;0.98;0.20;;;;;;;;;;6138742;23;20076;-59
2022/11/24 01:14:35;;;;;;;1.40;0.30;;;;;;;;;;6137518;23;20440;-59
2022/11/24 01:17:02;;;;;;;1.10;0.20;;;;;;;;;;6139182;23;20330;-60
2022/11/24 01:19:28;;;;;;;1.10;0.20;;;;;;;;;;6110749;23;20022;-59
2022/11/24 01:21:55;;;;;;;1.33;0.32;;;;;;;;;;6138208;23;20017;-59
2022/11/24 01:24:23;;;;;;;0.80;0.10;;;;;;;;;;6139786;23;20448;-59
2022/11/24 01:26:49;;;;;;;1.25;0.32;;;;;;;;;;6138651;23;20013;-59
2022/11/24 01:29:16;;;;;;;1.00;0.20;;;;;;;;;;6138118;23;20025;-59
2022/11/24 01:31:43;;;;;;;1.00;0.20;;;;;;;;;;6136565;23;20025;-59
2022/11/24 01:34:09;;;;;;;1.02;0.20;;;;;;;;;;6113032;23;20014;-59
2022/11/24 01:36:36;;;;;;;1.80;0.30;;;;;;;;;;6134640;23;20443;-59
2022/11/24 01:39:03;;;;;;;1.30;0.30;;;;;;;;;;6112620;23;20827;-59
2022/11/24 01:41:30;;;;;;;0.90;0.17;;;;;;;;;;6130049;23;20075;-59
2022/11/24 01:43:57;;;;;;;0.60;0.10;;;;;;;;;;6139015;23;20472;-59
2022/11/24 01:46:26;;;;;;;0.77;0.10;;;;;;;;;;6134807;23;20060;-59
2022/11/24 01:48:56;;;;;;;1.25;0.20;;;;;;;;;;6139857;23;20128;-58
2022/11/24 01:51:24;;;;;;;0.90;0.15;;;;;;;;;;6134677;23;20621;-58
2022/11/24 01:53:53;;;;;;;21.77;0.83;;;;;;;;;;6136511;23;20113;-59
2022/11/24 01:56:20;;;;;;;0.98;0.20;;;;;;;;;;6135092;23;20447;-59
2022/11/24 01:58:48;;;;;;;1.27;0.30;;;;;;;;;;6135059;23;20471;-59
2022/11/24 02:01:15;;;;;;;1.25;0.30;;;;;;;;;;6130649;23;20032;-59
2022/11/24 02:03:43;;;;;;;1.30;0.22;;;;;;;;;;6139316;23;20017;-59
2022/11/24 02:06:11;;;;;;;1.13;0.20;;;;;;;;;;6108068;23;20476;-59
2022/11/24 02:08:41;;;;;;;1.20;0.20;;;;;;;;;;6140494;23;20029;-58
2022/11/24 02:11:07;;;;;;;1.10;0.20;;;;;;;;;;6109147;23;20017;-59
2022/11/24 02:13:35;;;;;;;1.20;0.20;;;;;;;;;;6140275;23;20036;-58
2022/11/24 02:16:05;;;;;;;1.10;0.20;;;;;;;;;;6134657;23;20014;-59
2022/11/24 02:18:31;;;;;;;1.20;0.20;;;;;;;;;;6138896;23;20014;-59
2022/11/24 02:20:58;;;;;;;2.95;0.50;;;;;;;;;;6132633;23;20453;-59
2022/11/24 02:23:30;;;;;;;1.10;0.20;;;;;;;;;;6138615;23;20045;-59
2022/11/24 02:26:00;;;;;;;1.10;0.30;;;;;;;;;;6133104;23;20381;-59
2022/11/24 02:28:29;;;;;;;0.98;0.20;;;;;;;;;;6134902;23;20076;-58
2022/11/24 02:30:56;;;;;;;3.43;0.43;;;;;;;;;;6137559;23;20021;-59
2022/11/24 02:33:24;;;;;;;1.10;0.20;;;;;;;;;;6134312;23;20084;-59
2022/11/24 02:35:50;;;;;;;1.27;0.20;;;;;;;;;;6139449;23;20092;-59
2022/11/24 02:38:17;;;;;;;0.90;0.13;;;;;;;;;;6134293;23;20418;-58
2022/11/24 02:40:44;;;;;;;1.20;0.30;;;;;;;;;;6138881;23;20061;-61
2022/11/24 02:43:13;;;;;;;1.47;0.80;;;;;;;;;;6130967;23;20021;-59
2022/11/24 02:45:41;;;;;;;1.10;0.20;;;;;;;;;;6137451;23;20017;-59
2022/11/24 02:48:08;;;;;;;2.85;0.30;;;;;;;;;;6108434;23;20021;-59
2022/11/24 02:50:34;;;;;;;1.20;0.20;;;;;;;;;;6136280;23;20013;-58
2022/11/24 02:53:01;;;;;;;1.63;0.30;;;;;;;;;;6105953;23;20408;-59
2022/11/24 02:55:27;;;;;;;1.00;0.20;;;;;;;;;;6128544;23;20045;-59
2022/11/24 02:57:54;;;;;;;1.63;0.30;;;;;;;;;;6109958;23;20017;-58
2022/11/24 03:00:20;;;;;;;1.40;0.45;;;;;;;;;;6136934;23;20048;-59
2022/11/24 03:02:48;;;;;;;2.03;0.60;;;;;;;;;;6109120;23;20036;-59
2022/11/24 03:05:15;;;;;;;2.03;0.60;;;;;;;;;;6113990;23;20427;-59
2022/11/24 03:07:41;;;;;;;1.13;0.20;;;;;;;;;;6135074;23;20444;-59
2022/11/24 03:10:08;;;;;;;1.10;0.20;;;;;;;;;;6111917;23;20039;-59
2022/11/24 03:12:34;;;;;;;1.17;0.20;;;;;;;;;;6135978;23;20022;-59
2022/11/24 03:15:02;;;;;;;1.90;0.50;;;;;;;;;;6138917;23;20287;-59
2022/11/24 03:17:28;;;;;;;1.88;1.00;;;;;;;;;;6133040;23;20017;-59
2022/11/24 03:19:58;;;;;;;3.83;0.63;;;;;;;;;;6137150;23;20017;-59
2022/11/24 03:22:25;;;;;;;1.10;0.20;;;;;;;;;;6137696;23;20052;-59
2022/11/24 03:24:52;;;;;;;1.08;0.30;;;;;;;;;;6133127;23;20013;-59
2022/11/24 03:27:18;;;;;;;1.40;0.40;;;;;;;;;;6137064;23;20033;-59
2022/11/24 03:29:45;;;;;;;3.10;0.57;;;;;;;;;;6135797;23;20348;-59
2022/11/24 03:32:11;;;;;;;1.27;0.30;;;;;;;;;;6111675;23;20017;-59
2022/11/24 03:34:38;;;;;;;1.63;0.55;;;;;;;;;;6128187;23;20013;-59
2022/11/24 03:37:06;;;;;;;3.00;0.65;;;;;;;;;;6137636;23;20076;-59
2022/11/24 03:39:33;;;;;;;3.08;0.90;;;;;;;;;;6133173;23;20014;-59
2022/11/24 03:42:00;;;;;;;1.58;0.65;;;;;;;;;;6124627;23;20104;-59
2022/11/24 03:44:26;;;;;;;1.00;0.20;;;;;;;;;;6137569;23;20014;-59
2022/11/24 03:46:53;;;;;;;0.95;0.17;;;;;;;;;;6133546;23;20437;-59
2022/11/24 03:49:19;;;;;;;1.00;0.20;;;;;;;;;;6137820;23;20021;-59
2022/11/24 03:51:46;;;;;;;1.45;0.50;;;;;;;;;;6138908;23;20052;-58
2022/11/24 03:54:13;;;;;;;1.15;0.20;;;;;;;;;;6107773;23;20025;-59
2022/11/24 03:56:40;;;;;;;1.07;0.20;;;;;;;;;;6130414;23;20026;-59
2022/11/24 03:59:07;;;;;;;1.20;0.45;;;;;;;;;;6135770;23;20017;-59
2022/11/24 04:01:34;;;;;;;1.50;0.30;;;;;;;;;;6108077;23;20480;-58
2022/11/24 04:04:00;;;;;;;1.20;0.20;;;;;;;;;;6133888;23;20025;-59
2022/11/24 04:06:27;;;;;;;1.10;0.20;;;;;;;;;;6133836;23;20021;-59
2022/11/24 04:08:54;;;;;;;5.47;1.03;;;;;;;;;;6138668;23;20025;-58
2022/11/24 04:14:06;;;;;;;2.22;0.52;;;;;;;;;;6129148;23;20017;-59
2022/11/24 04:16:32;;;;;;;1.10;0.20;;;;;;;;;;6110971;23;20072;-59
2022/11/24 04:18:59;;;;;;;1.02;0.20;;;;;;;;;;6125295;23;20389;-59
2022/11/24 04:21:25;;;;;;;3.60;0.53;;;;;;;;;;6136919;23;20030;-59
2022/11/24 04:23:52;;;;;;;1.08;0.20;;;;;;;;;;6139666;23;20017;-59
2022/11/24 04:26:18;;;;;;;1.20;0.20;;;;;;;;;;6133535;23;20093;-59
2022/11/24 04:28:46;;;;;;;1.10;0.20;;;;;;;;;;6135331;23;20388;-59
2022/11/24 04:31:12;;;;;;;1.20;0.20;;;;;;;;;;6133732;23;20017;-59
2022/11/24 04:33:39;;;;;;;1.20;0.27;;;;;;;;;;6136623;23;20021;-59
2022/11/24 04:36:06;;;;;;;1.40;0.30;;;;;;;;;;6136861;23;20036;-59
2022/11/24 04:38:33;;;;;;;1.38;0.30;;;;;;;;;;6139401;23;20440;-52
2022/11/24 04:41:01;;;;;;;3.15;0.52;;;;;;;;;;6135225;23;20056;-59
2022/11/24 04:43:29;;;;;;;1.10;0.20;;;;;;;;;;6137269;23;20021;-59
2022/11/24 04:45:59;;;;;;;3.90;2.37;;;;;;;;;;6132358;23;20018;-60
2022/11/24 04:48:25;;;;;;;1.20;0.30;;;;;;;;;;6139397;23;20060;-59
2022/11/24 04:50:52;;;;;;;5.53;1.42;;;;;;;;;;6133843;23;20393;-59
2022/11/24 04:53:18;;;;;;;0.80;0.10;;;;;;;;;;6134181;23;20471;-59
2022/11/24 04:55:45;;;;;;;1.98;0.85;;;;;;;;;;6140279;23;20388;-59
2022/11/24 04:58:11;;;;;;;1.30;0.23;;;;;;;;;;6133274;23;20499;-59
2022/11/24 05:00:38;;;;;;;1.20;0.20;;;;;;;;;;6132509;23;20068;-59
2022/11/24 05:03:06;;;;;;;1.20;0.20;;;;;;;;;;6134595;23;20326;-59
2022/11/24 05:05:32;;;;;;;1.50;0.63;;;;;;;;;;6130934;23;20021;-59
2022/11/24 05:08:00;;;;;;;1.00;0.13;;;;;;;;;;6134903;23;20014;-59
2022/11/24 05:10:35;;;;;;;1.10;0.20;;;;;;;;;;6140348;23;20018;-59
2022/11/24 05:13:02;;;;;;;1.23;0.20;;;;;;;;;;6133583;23;20017;-59
2022/11/24 05:15:29;;;;;;;1.23;0.20;;;;;;;;;;6142173;23;20467;-59
2022/11/24 05:17:55;;;;;;;2.38;1.00;;;;;;;;;;6133095;23;20018;-60
2022/11/24 05:20:24;;;;;;;1.60;0.60;;;;;;;;;;6136512;23;20049;-59
2022/11/24 05:22:51;;;;;;;3.00;1.17;;;;;;;;;;6114060;23;20060;-59
2022/11/24 05:25:17;;;;;;;2.22;0.43;;;;;;;;;;6130148;23;20384;-58
2022/11/24 05:27:44;;;;;;;3.47;0.57;;;;;;;;;;6138729;23;20076;-59
2022/11/24 05:30:11;;;;;;;1.25;0.28;;;;;;;;;;6111703;23;20473;-59
2022/11/24 05:32:37;;;;;;;2.33;0.93;;;;;;;;;;6136002;23;20021;-59
2022/11/24 05:35:04;;;;;;;1.67;0.50;;;;;;;;;;6134979;23;20432;-58
2022/11/24 05:37:32;;;;;;;1.40;0.40;;;;;;;;;;6141889;23;20104;-59
2022/11/24 05:39:58;;;;;;;1.17;0.20;;;;;;;;;;6131364;23;20014;-59
2022/11/24 05:42:43;;;;;;;1.23;0.20;;;;;;;;;;6138985;23;20022;-59
2022/11/24 05:45:11;;;;;;;1.10;0.20;;;;;;;;;;6135424;23;20075;-59
2022/11/24 05:47:38;;;;;;;1.10;0.20;;;;;;;;;;6138655;23;20017;-58
2022/11/24 05:50:04;;;;;;;3.78;0.90;;;;;;;;;;6137741;23;20424;-59
2022/11/24 05:52:32;;;;;;;1.98;0.73;;;;;;;;;;6138431;23;20025;-58
2022/11/24 05:54:59;;;;;;;1.02;0.10;;;;;;;;;;6106046;23;20028;-58
2022/11/24 05:57:26;;;;;;;1.30;0.38;;;;;;;;;;6139314;23;20013;-59
2022/11/24 05:59:52;;;;;;;1.30;0.53;;;;;;;;;;6131333;23;20033;-58
2022/11/24 06:02:19;;;;;;;1.38;0.30;;;;;;;;;;6138667;23;20373;-59
2022/11/24 06:04:45;;;;;;;6.28;0.40;;;;;;;;;;6137243;23;20025;-59
2022/11/24 06:07:12;;;;;;;1.85;0.60;;;;;;;;;;6134406;23;20452;-59
2022/11/24 06:09:41;;;;;;;1.20;0.20;;;;;;;;;;6140243;23;20088;-63
2022/11/24 06:12:08;;;;;;;1.43;0.47;;;;;;;;;;6130754;23;20021;-62
2022/11/24 06:14:34;;;;;;;2.25;0.45;;;;;;;;;;6138520;23;20018;-63
2022/11/24 06:17:01;;;;;;;1.20;0.20;;;;;;;;;;6136839;23;20735;-63
2022/11/24 06:19:27;;;;;;;1.15;0.20;;;;;;;;;;6138102;23;20057;-63
2022/11/24 06:21:55;;;;;;;2.40;0.40;;;;;;;;;;6133967;23;20089;-61
2022/11/24 06:24:21;;;;;;;1.20;0.30;;;;;;;;;;6137516;23;20487;-63
2022/11/24 06:26:49;;;;;;;1.40;0.40;;;;;;;;;;6135540;23;20436;-62
2022/11/24 06:29:15;;;;;;;1.77;0.82;;;;;;;;;;6137120;23;20013;-62
2022/11/24 06:31:42;;;;;;;2.05;1.08;;;;;;;;;;6136956;23;20452;-62
2022/11/24 06:34:10;;;;;;;1.50;0.25;;;;;;;;;;6137056;23;20022;-62
2022/11/24 06:36:36;;;;;;;0.83;0.10;;;;;;;;;;6136329;23;20392;-62
2022/11/24 06:39:03;;;;;;;1.15;0.20;;;;;;;;;;6137075;23;20677;-62
2022/11/24 06:41:30;;;;;;;1.50;0.57;;;;;;;;;;6137306;23;20087;-63
2022/11/24 06:43:58;;;;;;;1.00;0.20;;;;;;;;;;6138146;23;20065;-63
2022/11/24 06:46:24;;;;;;;1.23;0.38;;;;;;;;;;6136570;23;20014;-62
2022/11/24 06:48:51;;;;;;;1.20;0.20;;;;;;;;;;6113988;23;20107;-62
2022/11/24 06:51:18;;;;;;;2.65;0.28;;;;;;;;;;6131838;23;20617;-62
2022/11/24 06:53:45;;;;;;;0.77;0.10;;;;;;;;;;6139454;23;20022;-62
2022/11/24 06:56:12;;;;;;;3.17;1.45;;;;;;;;;;6129389;23;20040;-62
2022/11/24 06:58:42;;;;;;;1.40;0.40;;;;;;;;;;6139636;23;20437;-62
2022/11/24 07:01:13;;;;;;;1.23;0.23;;;;;;;;;;6108170;23;20557;-63
2022/11/24 07:03:40;;;;;;;10.82;0.43;;;;;;;;;;6138533;23;20021;-62
2022/11/24 07:06:06;;;;;;;1.10;0.20;;;;;;;;;;6136384;23;20025;-62
2022/11/24 07:08:33;;;;;;;1.80;0.38;;;;;;;;;;6110735;23;20014;-62
2022/11/24 07:11:03;;;;;;;1.70;0.77;;;;;;;;;;6136031;23;20423;-62
2022/11/24 07:13:29;;;;;;;2.53;1.10;;;;;;;;;;6135988;23;20400;-63
2022/11/24 07:15:56;;;;;;;1.63;0.55;;;;;;;;;;6113932;23;20014;-63
2022/11/24 07:18:24;;;;;;;1.13;0.20;;;;;;;;;;6132161;23;20527;-62
2022/11/24 07:20:51;;;;;;;1.10;0.20;;;;;;;;;;6135579;23;20013;-63
2022/11/24 07:23:17;;;;;;;1.35;0.30;;;;;;;;;;6137977;23;20021;-63
2022/11/24 07:25:44;;;;;;;1.37;0.20;;;;;;;;;;6105286;23;20030;-62
2022/11/24 07:28:10;;;;;;;1.02;0.20;;;;;;;;;;6132831;23;20507;-62
2022/11/24 07:30:37;;;;;;;1.73;0.52;;;;;;;;;;6109477;23;20336;-59
2022/11/24 07:33:03;;;;;;;1.70;0.40;;;;;;;;;;6138835;23;20024;-59
2022/11/24 07:35:31;;;;;;;2.22;0.40;;;;;;;;;;6133641;23;20060;-59
2022/11/24 07:37:58;;;;;;;1.87;0.83;;;;;;;;;;6110622;23;20021;-59
2022/11/24 07:40:26;;;;;;;1.83;0.28;;;;;;;;;;6133119;23;20437;-59
2022/11/24 07:42:52;;;;;;;2.80;0.63;;;;;;;;;;6112148;23;20101;-59
2022/11/24 07:45:19;;;;;;;1.60;0.52;;;;;;;;;;6130873;23;20024;-59
2022/11/24 07:47:45;;;;;;;1.30;0.43;;;;;;;;;;6109965;23;20456;-59
2022/11/24 07:50:12;;;;;;;2.70;0.40;;;;;;;;;;6136509;23;20056;-59
2022/11/24 07:52:40;;;;;;;1.42;0.28;;;;;;;;;;6138156;23;20504;-59
2022/11/24 07:55:07;;;;;;;1.88;0.60;;;;;;;;;;6136226;23;20029;-59
2022/11/24 07:57:35;;;;;;;1.25;0.30;;;;;;;;;;6137710;23;20449;-59
2022/11/24 08:00:01;;;;;;;1.98;0.95;;;;;;;;;;6137978;23;20021;-59
2022/11/24 08:02:28;;;;;;;5.47;0.50;;;;;;;;;;6134820;23;20024;-58
2022/11/24 08:04:55;;;;;;;2.33;1.17;;;;;;;;;;6114560;23;20408;-59
2022/11/24 08:07:21;;;;;;;2.90;1.40;;;;;;;;;;6131738;23;20028;-58
2022/11/24 08:09:51;;;;;;;1.70;0.30;;;;;;;;;;6139202;23;20025;-58
2022/11/24 08:12:20;;;;;;;2.22;0.88;;;;;;;;;;6133318;23;20017;-58
2022/11/24 08:14:47;;;;;;;3.53;1.33;;;;;;;;;;6135844;23;20081;-59
2022/11/24 08:17:13;;;;;;;1.40;0.20;;;;;;;;;;6136724;23;20021;-59
2022/11/24 08:19:39;;;;;;;3.10;1.95;;;;;;;;;;6136884;23;20084;-59
2022/11/24 08:22:06;;;;;;;1.88;0.65;;;;;;;;;;6135856;23;20235;-59
2022/11/24 08:24:33;;;;;;;1.40;0.20;;;;;;;;;;6124030;23;20250;-59
2022/11/24 08:27:01;;;;;;;1.97;0.40;;;;;;;;;;6127069;23;20049;-59
2022/11/24 08:29:28;;;;;;;1.60;0.60;;;;;;;;;;6129847;23;20013;-59
2022/11/24 08:31:56;;;;;;;0.95;0.20;;;;;;;;;;6137166;23;20085;-59
2022/11/24 08:34:22;;;;;;;1.15;0.32;;;;;;;;;;6131074;23;20143;-59
2022/11/24 08:36:49;;;;;;;2.58;0.90;;;;;;;;;;6138277;23;20028;-58
2022/11/24 08:39:16;;;;;;;1.27;0.30;;;;;;;;;;6130066;23;20017;-57
2022/11/24 08:41:42;;;;;;;1.10;0.22;;;;;;;;;;6138606;23;20041;-57
2022/11/24 08:44:14;;;;;;;1.40;0.32;;;;;;;;;;6127423;23;20025;-58
2022/11/24 08:46:41;;;;;;;9.75;1.70;;;;;;;;;;6131042;23;20128;-57
2022/11/24 08:49:08;;;;;;;1.17;0.20;;;;;;;;;;6135699;23;20541;-59
2022/11/24 08:51:35;;;;;;;1.27;0.43;;;;;;;;;;6132197;23;20017;-58
2022/11/24 08:54:01;;;;;;;1.40;0.30;;;;;;;;;;6139297;23;20065;-58
2022/11/24 08:56:31;;;;;;;2.55;0.63;;;;;;;;;;6137555;23;20014;-58
2022/11/24 08:58:58;;;;;;;1.20;0.20;;;;;;;;;;6137233;23;20057;-58
2022/11/24 09:01:26;;;;;;;1.30;0.32;;;;;;;;;;6134966;23;20020;-59
2022/11/24 09:03:54;;;;;;;1.13;0.20;;;;;;;;;;6136363;23;20065;-58
2022/11/24 09:06:22;;;;;;;1.40;0.60;;;;;;;;;;6137616;23;20072;-58
2022/11/24 09:08:49;;;;;;;1.30;0.30;;;;;;;;;;6107995;23;20074;-58
2022/11/24 09:11:16;;;;;;;2.50;0.45;;;;;;;;;;6111263;23;20025;-58
2022/11/24 09:13:43;;;;;;;1.80;0.52;;;;;;;;;;6133550;23;20142;-58
2022/11/24 09:16:10;;;;;;;2.23;0.50;;;;;;;;;;6137582;23;20017;-58
2022/11/24 09:18:38;;;;;;;2.10;0.68;;;;;;;;;;6137257;23;20014;-58
2022/11/24 09:21:08;;;;;;;1.75;0.40;;;;;;;;;;6104752;23;20578;-58
2022/11/24 09:23:34;;;;;;;1.42;0.35;;;;;;;;;;6135525;23;20017;-58
2022/11/24 09:26:03;;;;;;;1.67;0.73;;;;;;;;;;6130570;23;20555;-58
2022/11/24 09:28:30;;;;;;;1.40;0.30;;;;;;;;;;6136702;23;20386;-58
2022/11/24 09:30:59;;;;;;;5.95;0.55;;;;;;;;;;6129109;23;20028;-58
2022/11/24 09:33:27;;;;;;;2.15;0.75;;;;;;;;;;6130974;23;20389;-59
2022/11/24 09:35:55;;;;;;;2.67;1.05;;;;;;;;;;6107831;23;20370;-58
2022/11/24 09:38:21;;;;;;;2.47;1.08;;;;;;;;;;6118653;23;20419;-58
2022/11/24 09:40:48;;;;;;;1.10;0.47;;;;;;;;;;6123796;23;20798;-58
2022/11/24 09:43:20;;;;;;;6.00;0.60;;;;;;;;;;6111183;23;20033;-59
2022/11/24 09:45:49;;;;;;;2.28;1.25;;;;;;;;;;6123708;23;20692;-58
2022/11/24 09:48:21;;;;;;;2.25;1.15;;;;;;;;;;6118178;23;20018;-59
2022/11/24 09:50:48;;;;;;;4.55;1.85;;;;;;;;;;6098399;23;20900;-58
2022/11/24 09:53:18;;;;;;;3.20;1.53;;;;;;;;;;6118453;23;20398;-59
2022/11/24 09:55:47;;;;;;;2.80;0.75;;;;;;;;;;6122767;23;20021;-59
2022/11/24 09:58:17;;;;;;;1.65;0.43;;;;;;;;;;6121959;23;20357;-53
2022/11/24 10:00:44;;;;;;;2.30;0.40;;;;;;;;;;6123329;23;20099;-59
2022/11/24 10:03:14;;;;;;;1.38;0.30;;;;;;;;;;6113263;23;20088;-58
2022/11/24 10:05:41;;;;;;;1.83;0.83;;;;;;;;;;6124625;23;20022;-59
2022/11/24 10:08:15;;;;;;;2.00;0.65;;;;;;;;;;6119571;23;20037;-59
2022/11/24 10:10:49;;;;;;;3.55;1.65;;;;;;;;;;6094495;23;20036;-58
2022/11/24 10:13:25;;;;;;;1.05;0.20;;;;;;;;;;6117446;23;20117;-59
2022/11/24 10:15:57;;;;;;;2.03;1.17;;;;;;;;;;6122640;23;20027;-59
2022/11/24 10:18:38;;;;;;;1.43;0.30;;;;;;;;;;6119829;23;20025;-59
2022/11/24 10:21:10;;;;;;;2.55;0.73;;;;;;;;;;6125700;23;20108;-59
2022/11/24 10:23:51;;;;;;;1.10;0.20;;;;;;;;;;6114564;23;20204;-59
2022/11/24 10:26:20;;;;;;;1.35;0.20;;;;;;;;;;6123417;23;20025;-59
2022/11/24 10:28:51;;;;;;;3.78;1.60;;;;;;;;;;6133290;23;20452;-59
2022/11/24 10:31:20;;;;;;;1.30;0.20;;;;;;;;;;6114506;23;20018;-61
2022/11/24 10:33:47;;;;;;;2.40;0.90;;;;;;;;;;6076826;23;20459;-59
2022/11/24 10:36:16;;;;;;;2.53;1.05;;;;;;;;;;6121345;23;20084;-60
2022/11/24 10:38:45;;;;;;;2.95;1.42;;;;;;;;;;6120307;23;20021;-41
2022/11/24 10:41:14;;;;;;;1.85;0.60;;;;;;;;;;6124883;23;20060;-40
2022/11/24 10:43:42;;;;;;;1.80;0.50;;;;;;;;;;6084674;23;20375;-41
2022/11/24 10:46:10;;;;;;;2.63;0.80;;;;;;;;;;6125206;23;20023;-39
2022/11/24 10:48:40;;;;;;;8.20;0.40;;;;;;;;;;6121260;23;20075;-40
2022/11/24 10:51:20;;;;;;;1.92;0.82;;;;;;;;;;6121935;23;20045;-41
2022/11/24 10:53:47;;;;;;;1.17;0.20;;;;;;;;;;6121050;23;20029;-41
2022/11/24 10:56:14;;;;;;;2.00;0.40;;;;;;;;;;6119959;23;20018;-42
2022/11/24 10:58:42;;;;;;;1.92;0.93;;;;;;;;;;6123169;23;20017;-40
2022/11/24 11:01:19;;;;;;;1.70;0.60;;;;;;;;;;6120717;23;20397;-45
2022/11/24 11:03:47;;;;;;;1.00;0.20;;;;;;;;;;6119293;23;20029;-41
2022/11/24 11:06:15;;;;;;;1.67;0.75;;;;;;;;;;6124597;23;20531;-40
2022/11/24 11:08:41;;;;;;;3.87;1.80;;;;;;;;;;6122290;23;20013;-41
2022/11/24 11:11:18;;;;;;;5.20;0.63;;;;;;;;;;6099348;23;20013;-42
2022/11/24 11:13:54;;;;;;;1.20;0.25;;;;;;;;;;6117881;23;20025;-42
2022/11/24 11:16:25;;;;;;;1.33;0.30;;;;;;;;;;6124887;23;20310;-41
2022/11/24 11:18:51;;;;;;;2.55;0.68;;;;;;;;;;6126214;23;20013;-40
2022/11/24 11:21:26;;;;;;;2.87;1.00;;;;;;;;;;6121617;23;20018;-41
2022/11/24 11:23:54;;;;;;;3.25;1.05;;;;;;;;;;6121073;23;20429;-40
2022/11/24 11:26:30;;;;;;;3.17;0.93;;;;;;;;;;6125868;23;20142;-40
2022/11/24 11:29:00;;;;;;;2.75;0.60;;;;;;;;;;6122242;23;20326;-40
2022/11/24 11:31:27;;;;;;;2.00;0.80;;;;;;;;;;6126170;23;20099;-40
2022/11/24 11:33:57;;;;;;;1.80;1.07;;;;;;;;;;6129401;23;20036;-42
2022/11/24 11:36:24;;;;;;;3.35;0.77;;;;;;;;;;6140648;23;20019;-40
2022/11/24 11:38:51;;;;;;;3.78;1.17;;;;;;;;;;6136679;23;20029;-41
2022/11/24 11:41:19;;;;;;;6.00;0.63;;;;;;;;;;6139980;23;20044;-40
2022/11/24 11:43:52;;;;;;;2.78;0.60;;;;;;;;;;6137383;23;20021;-40
2022/11/24 11:46:20;;;;;;;1.70;0.50;;;;;;;;;;6136283;23;20014;-40
2022/11/24 11:48:47;;;;;;;2.40;1.02;;;;;;;;;;6116579;23;20021;-41
2022/11/24 11:51:26;;;;;;;1.40;0.28;;;;;;;;;;6135078;23;20021;-41
2022/11/24 11:53:55;;;;;;;7.75;1.67;;;;;;;;;;6143152;23;20068;-39
2022/11/24 11:56:24;;;;;;;2.05;0.73;;;;;;;;;;6132119;23;20065;-40
2022/11/24 11:59:05;;;;;;;1.50;0.40;;;;;;;;;;6140454;23;20018;-40
2022/11/24 12:01:41;;;;;;;1.90;0.43;;;;;;;;;;6138888;23;20452;-41
2022/11/24 12:04:14;;;;;;;2.42;0.30;;;;;;;;;;6139922;23;20021;-40
2022/11/24 12:06:48;;;;;;;1.60;0.50;;;;;;;;;;6140649;23;20013;-44
2022/11/24 12:09:20;;;;;;;1.40;0.30;;;;;;;;;;6139397;23;20307;-40
2022/11/24 12:11:52;;;;;;;1.53;0.30;;;;;;;;;;6112379;23;20025;-39
2022/11/24 12:14:24;;;;;;;4.25;0.55;;;;;;;;;;6140194;23;20025;-41
2022/11/24 12:16:57;;;;;;;2.10;0.70;;;;;;;;;;6138379;23;20080;-42
2022/11/24 12:19:31;;;;;;;1.77;0.73;;;;;;;;;;6136771;23;20391;-39
2022/11/24 12:22:02;;;;;;;2.03;1.00;;;;;;;;;;6140672;23;20018;-41
2022/11/24 12:24:32;;;;;;;2.30;0.70;;;;;;;;;;6137431;23;20017;-41
2022/11/24 12:27:01;;;;;;;2.08;0.60;;;;;;;;;;6141471;23;20036;-41
2022/11/24 12:29:44;;;;;;;2.60;0.50;;;;;;;;;;6140275;23;20069;-41
2022/11/24 12:32:21;;;;;;;1.88;0.90;;;;;;;;;;6137417;23;20415;-41
2022/11/24 12:34:52;;;;;;;1.80;0.50;;;;;;;;;;6138972;23;20025;-39
2022/11/24 12:37:25;;;;;;;2.73;0.57;;;;;;;;;;6136732;23;20049;-39
2022/11/24 12:39:56;;;;;;;2.35;0.38;;;;;;;;;;6115238;23;20623;-41
2022/11/24 12:42:27;;;;;;;2.58;1.40;;;;;;;;;;6140664;23;20360;-40
2022/11/24 12:45:11;;;;;;;1.80;0.85;;;;;;;;;;6133626;23;20020;-39
2022/11/24 12:47:45;;;;;;;2.22;0.95;;;;;;;;;;6140676;23;20052;-40
2022/11/24 12:50:14;;;;;;;2.40;0.90;;;;;;;;;;6139733;23;20013;-41
2022/11/24 12:52:44;;;;;;;1.63;0.40;;;;;;;;;;6131976;23;20017;-41
2022/11/24 12:55:16;;;;;;;2.30;0.60;;;;;;;;;;6130291;23;20499;-42
2022/11/24 12:57:47;;;;;;;1.40;0.30;;;;;;;;;;6122281;23;20018;-41
2022/11/24 13:00:17;;;;;;;3.28;0.93;;;;;;;;;;6125833;23;20021;-42
2022/11/24 13:03:04;;;;;;;1.97;0.73;;;;;;;;;;6123191;23;20462;-41
2022/11/24 13:05:32;;;;;;;15.93;0.88;;;;;;;;;;6121790;23;20028;-42
2022/11/24 13:08:01;;;;;;;2.05;0.85;;;;;;;;;;6121848;23;20508;-43
2022/11/24 13:10:29;;;;;;;2.15;0.60;;;;;;;;;;6122460;23;20487;-44
2022/11/24 13:12:56;;;;;;;1.50;0.32;;;;;;;;;;6117595;23;20449;-41
2022/11/24 13:15:23;;;;;;;2.17;0.83;;;;;;;;;;6117194;23;20029;-43
2022/11/24 13:17:49;;;;;;;1.85;0.93;;;;;;;;;;6116611;23;20021;-41
2022/11/24 13:20:21;;;;;;;2.80;0.52;;;;;;;;;;6109004;23;20407;-40
2022/11/24 13:22:48;;;;;;;2.53;0.93;;;;;;;;;;6118939;23;20397;-42
2022/11/24 13:25:17;;;;;;;3.55;0.88;;;;;;;;;;6086590;23;20028;-43
2022/11/24 13:27:45;;;;;;;2.47;0.87;;;;;;;;;;6119840;23;20377;-42
2022/11/24 13:30:30;;;;;;;1.40;0.30;;;;;;;;;;6117079;23;20017;-42
2022/11/24 13:33:01;;;;;;;4.07;1.48;;;;;;;;;;6119615;23;20396;-40
2022/11/24 13:35:28;;;;;;;2.53;0.70;;;;;;;;;;6113433;23;20116;-42
2022/11/24 13:37:55;;;;;;;1.95;0.75;;;;;;;;;;6123086;23;20025;-41
2022/11/24 13:40:41;;;;;;;6.73;1.53;;;;;;;;;;6120157;23;20706;-40
2022/11/24 13:43:20;;;;;;;3.53;1.23;;;;;;;;;;6116311;23;20026;-41
2022/11/24 13:45:53;;;;;;;1.60;0.40;;;;;;;;;;6088878;23;20044;-41
2022/11/24 13:48:39;;;;;;;6.65;0.65;;;;;;;;;;6120285;23;20022;-41
2022/11/24 13:51:23;;;;;;;2.08;0.68;;;;;;;;;;6120668;23;20511;-42
2022/11/24 13:53:50;;;;;;;1.70;0.50;;;;;;;;;;6116661;23;20041;-44
2022/11/24 13:56:22;;;;;;;1.75;0.30;;;;;;;;;;6120372;23;20463;-41
2022/11/24 13:58:49;;;;;;;1.30;0.25;;;;;;;;;;6127950;23;20013;-42
2022/11/24 14:01:18;;;;;;;2.15;1.58;;;;;;;;;;6122042;23;20028;-41
2022/11/24 14:03:57;;;;;;;2.08;0.50;;;;;;;;;;6117744;23;20013;-40
2022/11/24 14:06:28;;;;;;;2.03;0.70;;;;;;;;;;6126969;23;20013;-41
2022/11/24 14:08:55;;;;;;;1.52;0.30;;;;;;;;;;6114963;23;20250;-41
2022/11/24 14:11:22;;;;;;;3.75;1.02;;;;;;;;;;6126343;23;20080;-44
2022/11/24 14:13:49;;;;;;;1.83;0.50;;;;;;;;;;6118722;23;20072;-42
2022/11/24 14:16:16;;;;;;;1.50;0.30;;;;;;;;;;6122353;23;20021;-42
2022/11/24 14:18:44;;;;;;;3.03;0.57;;;;;;;;;;6128508;23;20065;-41
2022/11/24 14:21:28;;;;;;;1.92;1.05;;;;;;;;;;6116248;23;20021;-41
2022/11/24 14:23:55;;;;;;;2.08;1.25;;;;;;;;;;6110946;23;20028;-44
2022/11/24 14:26:23;;;;;;;2.45;0.63;;;;;;;;;;6115865;23;20499;-42
2022/11/24 14:28:50;;;;;;;2.00;0.60;;;;;;;;;;6116567;23;20014;-42
2022/11/24 14:31:24;;;;;;;3.03;1.20;;;;;;;;;;6117556;23;20025;-40
2022/11/24 14:33:51;;;;;;;1.40;0.30;;;;;;;;;;6116753;23;20024;-44
2022/11/24 14:36:17;;;;;;;1.67;0.40;;;;;;;;;;6120719;23;20017;-42
2022/11/24 14:38:45;;;;;;;1.77;0.60;;;;;;;;;;6136823;23;20017;-40
2022/11/24 14:41:24;;;;;;;1.48;0.35;;;;;;;;;;6140099;23;20052;-40
2022/11/24 14:44:02;;;;;;;1.73;0.77;;;;;;;;;;6139706;23;20018;-41
2022/11/24 14:46:29;;;;;;;1.77;0.40;;;;;;;;;;6140740;23;20076;-41
2022/11/24 14:48:56;;;;;;;1.35;0.30;;;;;;;;;;6141528;23;20021;-42
2022/11/24 14:51:24;;;;;;;1.50;0.30;;;;;;;;;;6138476;23;20665;-42
2022/11/24 14:53:53;;;;;;;1.67;0.30;;;;;;;;;;6143069;23;20388;-39